createdAt,value
2022-09-06T00:02:47.245Z,4.90
2022-09-06T00:07:49.743Z,4.80
2022-09-06T00:12:51.724Z,4.67
2022-09-06T00:17:53.582Z,4.90
2022-09-06T00:23:04.496Z,5.07
2022-09-06T00:28:06.834Z,4.40
2022-09-06T00:33:08.831Z,5.00
2022-09-06T00:38:10.674Z,5.13
2022-09-06T00:43:12.517Z,4.70
2022-09-06T00:48:15.074Z,4.80
2022-09-06T00:53:17.995Z,4.53
2022-09-06T00:58:20.377Z,5.10
2022-09-06T01:03:24.280Z,4.70
2022-09-06T01:08:44.306Z,4.90
2022-09-06T01:14:03.401Z,5.10
2022-09-06T01:19:28.334Z,5.03
2022-09-06T01:24:54.173Z,5.63
2022-09-06T01:30:12.701Z,5.20
2022-09-06T01:35:35.305Z,5.70
2022-09-06T01:40:37.206Z,6.73
2022-09-06T01:45:59.269Z,6.47
2022-09-06T01:51:07.093Z,5.67
2022-09-06T01:56:25.158Z,5.93
2022-09-06T02:01:38.666Z,6.00
2022-09-06T02:06:49.285Z,5.80
2022-09-06T02:12:00.242Z,6.20
2022-09-06T02:17:04.153Z,5.10
2022-09-06T02:22:09.798Z,5.13
2022-09-06T02:27:12.739Z,5.30
2022-09-06T02:32:21.907Z,7.77
2022-09-06T02:37:26.166Z,7.00
2022-09-06T02:42:28.019Z,6.90
2022-09-06T02:47:30.242Z,6.50
2022-09-06T02:52:32.093Z,6.40
2022-09-06T02:57:33.918Z,6.43
2022-09-06T03:02:35.789Z,6.77
2022-09-06T03:07:37.678Z,6.33
2022-09-06T03:12:39.504Z,7.57
2022-09-06T03:17:42.123Z,7.30
2022-09-06T03:22:44.779Z,7.70
2022-09-06T03:27:47.024Z,8.00
2022-09-06T03:32:48.836Z,8.27
2022-09-06T03:37:50.660Z,8.10
2022-09-06T03:42:52.467Z,8.37
2022-09-06T03:47:54.299Z,7.70
2022-09-06T03:52:56.152Z,8.63
2022-09-06T03:57:57.996Z,9.20
2022-09-06T04:03:01.922Z,8.80
2022-09-06T04:08:05.857Z,9.43
2022-09-06T04:13:07.930Z,10.80
2022-09-06T04:18:09.788Z,8.90
2022-09-06T04:23:11.615Z,10.83
2022-09-06T04:28:13.914Z,10.60
2022-09-06T04:33:16.137Z,8.50
2022-09-06T04:38:17.968Z,8.60
2022-09-06T04:43:20.326Z,7.93
2022-09-06T04:48:22.273Z,8.00
2022-09-06T04:53:24.264Z,7.27
2022-09-06T04:58:26.200Z,6.80
2022-09-06T05:03:28.115Z,6.97
2022-09-06T05:08:30.326Z,6.97
2022-09-06T05:13:32.164Z,7.20
2022-09-06T05:18:34.560Z,6.70
2022-09-06T05:23:37.065Z,9.70
2022-09-06T05:28:39.028Z,6.47
2022-09-06T05:33:40.896Z,7.40
2022-09-06T05:38:43.148Z,5.43
2022-09-06T05:43:45.502Z,4.37
2022-09-06T05:49:00.412Z,4.00
2022-09-06T05:54:02.271Z,3.67
2022-09-06T05:59:04.490Z,4.27
2022-09-06T06:04:07.983Z,3.67
2022-09-06T06:09:10.259Z,3.70
2022-09-06T06:14:12.125Z,3.77
2022-09-06T06:19:15.370Z,4.47
2022-09-06T06:24:17.232Z,3.70
2022-09-06T06:29:19.595Z,3.37
2022-09-06T06:34:21.971Z,3.23
2022-09-06T06:39:24.283Z,2.77
2022-09-06T06:44:28.094Z,2.87
2022-09-06T06:49:30.480Z,3.20
2022-09-06T06:54:32.296Z,3.20
2022-09-06T06:59:34.136Z,3.63
2022-09-06T07:04:36.005Z,3.40
2022-09-06T07:14:59.804Z,3.80
2022-09-06T07:20:17.374Z,3.50
2022-09-06T07:25:21.587Z,3.97
2022-09-06T07:30:23.581Z,3.17
2022-09-06T07:35:26.544Z,3.43
2022-09-06T07:40:30.772Z,3.13
2022-09-06T07:45:35.989Z,3.23
2022-09-06T07:55:47.894Z,3.00
2022-09-06T08:00:50.215Z,2.60
2022-09-06T08:11:10.346Z,2.47
2022-09-06T08:16:13.916Z,2.70
2022-09-06T08:21:16.668Z,2.70
2022-09-06T08:26:20.860Z,2.90
2022-09-06T08:31:23.056Z,2.30
2022-09-06T08:36:29.486Z,2.27
2022-09-06T08:41:31.725Z,2.40
2022-09-06T08:46:42.577Z,2.07
2022-09-06T08:52:07.740Z,2.47
2022-09-06T08:57:09.972Z,2.37
2022-09-06T09:02:15.210Z,2.37
2022-09-06T09:07:32.968Z,2.47
2022-09-06T09:12:42.618Z,2.10
2022-09-06T09:17:45.236Z,3.17
2022-09-06T09:22:47.640Z,3.10
2022-09-06T09:27:57.559Z,3.80
2022-09-06T09:32:59.464Z,3.40
2022-09-06T09:38:07.715Z,4.27
2022-09-06T09:43:23.331Z,3.87
2022-09-06T09:48:27.635Z,4.23
2022-09-06T09:53:29.509Z,3.90
2022-09-06T09:58:35.545Z,3.50
2022-09-06T10:09:00.106Z,3.43
2022-09-06T10:14:19.735Z,3.77
2022-09-06T10:19:24.195Z,4.20
2022-09-06T10:24:59.041Z,4.07
2022-09-06T10:30:05.615Z,4.23
2022-09-06T10:35:24.071Z,3.90
2022-09-06T10:40:47.381Z,3.70
2022-09-06T10:46:04.871Z,3.67
2022-09-06T10:51:23.950Z,3.83
2022-09-06T10:56:41.699Z,3.50
2022-09-06T11:02:15.871Z,3.70
2022-09-06T11:07:31.060Z,3.80
2022-09-06T11:12:52.093Z,3.80
2022-09-06T11:18:14.555Z,3.60
2022-09-06T11:23:19.335Z,4.07
2022-09-06T11:28:35.124Z,3.80
2022-09-06T11:33:39.909Z,3.77
2022-09-06T11:38:42.780Z,4.10
2022-09-06T11:43:45.046Z,3.30
2022-09-06T11:49:07.514Z,3.97
2022-09-06T11:54:18.662Z,4.23
2022-09-06T11:59:27.414Z,3.53
2022-09-06T12:05:07.441Z,4.43
2022-09-06T12:10:46.907Z,3.57
2022-09-06T12:15:56.486Z,4.67
2022-09-06T12:20:58.301Z,3.80
2022-09-06T12:26:01.271Z,4.20
2022-09-06T12:31:33.921Z,4.33
2022-09-06T12:36:36.586Z,4.20
2022-09-06T12:41:43.565Z,4.03
2022-09-06T12:46:50.949Z,3.77
2022-09-06T12:52:05.995Z,3.70
2022-09-06T12:57:24.499Z,3.73
2022-09-06T13:02:33.861Z,3.30
2022-09-06T13:07:41.317Z,4.43
2022-09-06T13:12:45.474Z,4.20
2022-09-06T13:17:47.574Z,4.37
2022-09-06T13:22:50.849Z,5.10
2022-09-06T13:27:58.072Z,4.63
2022-09-06T13:33:00.295Z,4.60
2022-09-06T13:38:41.020Z,5.37
2022-09-06T13:43:45.446Z,4.80
2022-09-06T13:48:47.300Z,4.00
2022-09-06T13:53:49.983Z,3.30
2022-09-06T13:58:51.802Z,4.10
2022-09-06T14:03:54.842Z,3.47
2022-09-06T14:09:06.803Z,3.40
2022-09-06T14:14:10.881Z,3.80
2022-09-06T14:19:13.102Z,3.73
2022-09-06T14:24:15.484Z,3.57
2022-09-06T14:29:17.717Z,2.93
2022-09-06T14:34:19.554Z,3.20
2022-09-06T14:39:21.514Z,2.53
2022-09-06T14:44:23.777Z,4.13
2022-09-06T14:49:26.156Z,2.50
2022-09-06T14:54:29.405Z,3.03
2022-09-06T14:59:31.976Z,2.40
2022-09-06T15:04:34.727Z,2.70
2022-09-06T15:09:37.547Z,3.40
2022-09-06T15:14:41.039Z,3.43
2022-09-06T15:19:43.477Z,3.03
2022-09-06T15:24:45.755Z,3.90
2022-09-06T15:29:48.023Z,3.53
2022-09-06T15:34:50.296Z,3.10
2022-09-06T15:39:52.500Z,3.33
2022-09-06T15:44:55.305Z,3.40
2022-09-06T15:49:57.716Z,3.20
2022-09-06T15:55:17.967Z,3.70
2022-09-06T16:00:22.074Z,3.37
2022-09-06T16:10:46.741Z,3.67
2022-09-06T16:16:02.754Z,3.23
2022-09-06T16:21:05.874Z,3.00
2022-09-06T16:26:09.020Z,3.20
2022-09-06T16:31:11.801Z,2.70
2022-09-06T16:36:14.938Z,3.20
2022-09-06T16:41:32.963Z,2.63
2022-09-06T16:46:34.957Z,3.10
2022-09-06T16:51:37.277Z,3.70
2022-09-06T16:56:40.043Z,4.30
2022-09-06T17:01:42.470Z,3.93
2022-09-06T17:06:45.485Z,3.30
2022-09-06T17:11:49.964Z,3.17
2022-09-06T17:17:07.476Z,3.77
2022-09-06T17:22:11.316Z,3.50
2022-09-06T17:27:13.281Z,3.43
2022-09-06T17:32:15.556Z,5.10
2022-09-06T17:37:17.860Z,3.80
2022-09-06T17:42:20.241Z,4.07
2022-09-06T17:47:22.142Z,4.47
2022-09-06T17:52:24.578Z,3.80
2022-09-06T17:57:26.616Z,4.70
2022-09-06T18:02:28.722Z,3.73
2022-09-06T18:07:31.004Z,14.07
2022-09-06T18:12:33.288Z,4.57
2022-09-06T18:17:35.592Z,4.07
2022-09-06T18:22:39.619Z,4.00
2022-09-06T18:27:41.887Z,4.70
2022-09-06T18:32:44.699Z,4.17
2022-09-06T18:37:47.027Z,5.23
2022-09-06T18:42:49.599Z,4.30
2022-09-06T18:47:51.480Z,5.30
2022-09-06T18:52:53.994Z,5.70
2022-09-06T18:57:56.933Z,4.27
2022-09-06T19:02:58.927Z,4.80
2022-09-06T19:08:00.841Z,5.40
2022-09-06T19:13:03.273Z,4.80
2022-09-06T19:18:05.280Z,4.10
2022-09-06T19:23:07.536Z,4.87
2022-09-06T19:28:09.877Z,4.30
2022-09-06T19:33:12.294Z,4.10
2022-09-06T19:38:14.556Z,4.37
2022-09-06T19:43:16.868Z,4.40
2022-09-06T19:48:19.136Z,4.10
2022-09-06T19:53:21.004Z,4.33
2022-09-06T19:58:25.623Z,4.00
2022-09-06T20:03:27.998Z,4.97
2022-09-06T20:08:30.071Z,4.80
2022-09-06T20:13:32.867Z,4.73
2022-09-06T20:18:35.605Z,4.53
2022-09-06T20:23:37.501Z,4.77
2022-09-06T20:28:40.259Z,4.20
2022-09-06T20:33:45.888Z,4.70
2022-09-06T20:38:51.437Z,4.43
2022-09-06T20:43:54.654Z,5.00
2022-09-06T20:48:59.727Z,4.73
2022-09-06T20:54:02.657Z,4.43
2022-09-06T20:59:10.288Z,4.50
2022-09-06T21:04:15.803Z,4.53
2022-09-06T21:09:18.524Z,4.60
2022-09-06T21:14:20.896Z,4.20
2022-09-06T21:19:22.853Z,4.83
2022-09-06T21:24:24.734Z,4.57
2022-09-06T21:29:26.671Z,5.27
2022-09-06T21:34:28.860Z,5.30
2022-09-06T21:39:30.794Z,5.10
2022-09-06T21:44:32.764Z,4.80
2022-09-06T21:49:35.037Z,4.67
2022-09-06T21:54:37.383Z,4.43
2022-09-06T21:59:39.388Z,4.03
2022-09-06T22:04:42.297Z,4.47
2022-09-06T22:09:44.675Z,4.70
2022-09-06T22:14:47.518Z,4.70
2022-09-06T22:19:49.448Z,4.10
2022-09-06T22:24:51.775Z,4.63
2022-09-06T22:29:53.715Z,4.10
2022-09-06T22:34:55.982Z,3.50
2022-09-06T22:39:58.337Z,3.53
2022-09-06T22:45:00.289Z,4.00
2022-09-06T22:50:02.260Z,4.40
2022-09-06T22:55:04.452Z,4.40
2022-09-06T23:00:07.051Z,4.90
2022-09-06T23:05:09.199Z,5.33
2022-09-06T23:10:11.930Z,5.07
2022-09-06T23:15:16.215Z,4.23
2022-09-06T23:20:19.279Z,5.70
2022-09-06T23:25:21.206Z,6.00
2022-09-06T23:30:23.478Z,5.60
2022-09-06T23:35:25.602Z,5.53
2022-09-06T23:40:27.507Z,5.10
2022-09-06T23:45:29.388Z,5.27
2022-09-06T23:50:31.304Z,4.40
2022-09-06T23:55:33.250Z,4.77
